Map

Track Data

SID SEASON NUMBER BASIN SUBBASIN NAME ISO_TIME NATURE LAT LON WMO_WIND WMO_PRES WMO_AGENCY TRACK_TYPE DIST2LAND LANDFALL IFLAG USA_AGENCY USA_ATCF_ID USA_LAT USA_LON USA_RECORD USA_STATUS USA_WIND USA_PRES USA_SSHS USA_R34_NE USA_R34_SE USA_R34_SW USA_R34_NW USA_R50_NE USA_R50_SE USA_R50_SW USA_R50_NW USA_R64_NE USA_R64_SE USA_R64_SW USA_R64_NW USA_POCI USA_ROCI USA_RMW USA_EYE TOKYO_LAT TOKYO_LON TOKYO_GRADE TOKYO_WIND TOKYO_PRES TOKYO_R50_DIR TOKYO_R50_LONG TOKYO_R50_SHORT TOKYO_R30_DIR TOKYO_R30_LONG TOKYO_R30_SHORT TOKYO_LAND CMA_LAT CMA_LON CMA_CAT CMA_WIND CMA_PRES HKO_LAT HKO_LON HKO_CAT HKO_WIND HKO_PRES NEWDELHI_LAT NEWDELHI_LON NEWDELHI_GRADE NEWDELHI_WIND NEWDELHI_PRES NEWDELHI_CI NEWDELHI_DP NEWDELHI_POCI REUNION_LAT REUNION_LON REUNION_TYPE REUNION_WIND REUNION_PRES REUNION_TNUM REUNION_CI REUNION_RMW REUNION_R34_NE REUNION_R34_SE REUNION_R34_SW REUNION_R34_NW REUNION_R50_NE REUNION_R50_SE REUNION_R50_SW REUNION_R50_NW REUNION_R64_NE REUNION_R64_SE REUNION_R64_SW REUNION_R64_NW BOM_LAT BOM_LON BOM_TYPE BOM_WIND BOM_PRES BOM_TNUM BOM_CI BOM_RMW BOM_R34_NE BOM_R34_SE BOM_R34_SW BOM_R34_NW BOM_R50_NE BOM_R50_SE BOM_R50_SW BOM_R50_NW BOM_R64_NE BOM_R64_SE BOM_R64_SW BOM_R64_NW BOM_ROCI BOM_POCI BOM_EYE BOM_POS_METHOD BOM_PRES_METHOD NADI_LAT NADI_LON NADI_CAT NADI_WIND NADI_PRES WELLINGTON_LAT WELLINGTON_LON WELLINGTON_WIND WELLINGTON_PRES DS824_LAT DS824_LON DS824_STAGE DS824_WIND DS824_PRES TD9636_LAT TD9636_LON TD9636_STAGE TD9636_WIND TD9636_PRES TD9635_LAT TD9635_LON TD9635_WIND TD9635_PRES TD9635_ROCI NEUMANN_LAT NEUMANN_LON NEUMANN_CLASS NEUMANN_WIND NEUMANN_PRES MLC_LAT MLC_LON MLC_CLASS MLC_WIND MLC_PRES USA_GUST BOM_GUST BOM_GUST_PER REUNION_GUST REUNION_GUST_PER USA_SEAHGT USA_SEARAD_NE USA_SEARAD_SE USA_SEARAD_SW USA_SEARAD_NW STORM_SPEED STORM_DIR
1958073S19115 1958 23 SI WA NOT_NAMED 1958-03-13 23:00:00 NR -18.8000 114.800 main 276 273 __________O___ -1 -18.8000 114.800 1 8 224
1958073S19115 1958 23 SI WA NOT_NAMED 1958-03-14 00:00:00 TS -18.8893 114.708 main 273 264 O________OP___ jtwc_sh SH231958 -18.9000 114.700 -1 -18.9000 114.700 TC -18.8786 114.715 1 6 216
1958073S19115 1958 23 SI WA NOT_NAMED 1958-03-14 01:00:00 TS -18.9762 114.669 980 bom main 264 261 P_____O__PP___ SH231958 -18.9845 114.615 -1 -19.0000 115.000 980 -18.9845 114.615 TC -18.9573 114.631 1 6 214
1958073S19115 1958 23 SI WA NOT_NAMED 1958-03-14 03:00:00 TS -19.1504 114.519 main 257 252 P_____P__PP___ SH231958 -19.1526 114.445 -1 -19.2128 114.846 979 -19.1526 114.445 TC -19.1161 114.465 1 7 219
1958073S19115 1958 23 SI WA NOT_NAMED 1958-03-14 06:00:00 TS -19.4124 114.292 main 252 238 O_____P__OP___ jtwc_sh SH231958 -19.4000 114.200 -1 -19.5145 114.623 977 -19.4000 114.200 TC -19.3607 114.229 1 7 217
1958073S19115 1958 23 SI WA NOT_NAMED 1958-03-14 09:00:00 TS -19.6688 114.098 main 238 232 P_____P__PP___ SH231958 -19.6425 113.977 -1 -19.7718 114.419 976 -19.6425 113.977 TC -19.6183 114.019 1 6 215
1958073S19115 1958 23 SI WA NOT_NAMED 1958-03-14 11:00:00 TS -19.8319 113.976 main 232 221 P_____P__PO___ SH231958 -19.8110 113.853 -1 -19.9056 114.300 975 -19.8110 113.853 TC -19.8000 113.900 2 6 210
1958073S19115 1958 23 SI WA NOT_NAMED 1958-03-14 12:00:00 TS -19.9124 113.946 main 223 212 O_____P__OP___ jtwc_sh SH231958 -19.9000 113.800 -1 -19.9582 114.248 975 -19.9000 113.800 TC -19.8944 113.848 2 5 199
1958073S19115 1958 23 SI WA NOT_NAMED 1958-03-14 13:00:00 TS -19.9865 113.915 975 bom main 212 201 P_____O__PP___ SH231958 -19.9943 113.742 -1 -20.0000 114.200 975 -19.9943 113.742 TC -19.9909 113.801 2 5 202
1958073S19115 1958 23 SI WA NOT_NAMED 1958-03-14 15:00:00 TS -20.1256 113.851 main 201 180 P_____P__PP___ SH231958 -20.1925 113.648 -1 -20.0519 114.121 974 -20.1925 113.648 TC -20.1892 113.728 2 4 196
1958073S19115 1958 23 SI WA NOT_NAMED 1958-03-14 18:00:00 TS -20.3232 113.808 main 180 157 O_____P__OP___ jtwc_sh SH231958 -20.5000 113.600 -1 -20.0849 114.047 972 -20.5000 113.600 TC -20.4941 113.678 2 4 0
1958073S19115 1958 23 SI WA NOT_NAMED 1958-03-14 21:00:00 TS -20.5337 113.840 main 157 134 P_____P__PP___ SH231958 -20.7999 113.690 -1 -20.1236 114.029 971 -20.7999 113.690 TC -20.8001 113.716 2 5 165
1958073S19115 1958 23 SI WA NOT_NAMED 1958-03-14 23:00:00 TS -20.6855 113.915 main 134 123 P_____P__PO___ SH231958 -21.0000 113.820 -1 -20.1857 114.050 970 -21.0000 113.820 TC -21.0000 113.800 2 5 153
1958073S19115 1958 23 SI WA NOT_NAMED 1958-03-15 00:00:00 TS -20.7673 113.966 main 123 123 O_____P__OP___ jtwc_sh SH231958 -21.1000 113.900 -1 -20.2351 114.072 970 -21.1000 113.900 TC -21.1012 113.857 2 6 149
1958073S19115 1958 23 SI WA NOT_NAMED 1958-03-15 01:00:00 TS -20.8545 114.023 970 bom main 111 100 P_____O__PP___ SH231958 -21.2026 113.980 -1 -20.3000 114.100 970 -21.2026 113.980 TC -21.2023 113.928 2 7 148
1958073S19115 1958 23 SI WA NOT_NAMED 1958-03-15 03:00:00 TS -21.0575 114.159 main 88 49 P_____P__PP___ SH231958 -21.4075 114.170 -1 -20.5569 114.143 966 -21.4075 114.170 TC -21.4019 114.106 2 8 145
1958073S19115 1958 23 SI WA NOT_NAMED 1958-03-15 06:00:00 TS -21.3774 114.421 main 49 11 O_____P__OP___ jtwc_sh SH231958 -21.7000 114.500 -1 -21.0185 114.265 960 -21.7000 114.500 TC -21.6883 114.441 2 8 140
1958073S19115 1958 23 SI WA NOT_NAMED 1958-03-15 09:00:00 TS -21.6908 114.729 main 11 0 P_____P__PP___ SH231958 -21.9800 114.842 -1 -21.4573 114.470 954 -21.9800 114.842 TC -21.9479 114.829 2 8 135
1958073S19115 1958 23 SI WA NOT_NAMED 1958-03-15 11:00:00 TS -21.8718 114.960 main 0 0 P_____P__PO___ SH231958 -22.1364 115.081 -1 -21.6733 114.663 950 -22.1364 115.081 TC -22.1000 115.100 4 8 130
1958073S19115 1958 23 SI WA NOT_NAMED 1958-03-15 11:20:00 TS -21.8979 114.999 950 bom main 0 0 P_____O__PP___ SH231958 -22.1588 115.121 -1 -21.7000 114.700 950 -22.1588 115.121 TC -22.1205 115.137 4 8 124
1958073S19115 1958 23 SI WA NOT_NAMED 1958-03-15 12:00:00 TS -21.9461 115.076 main 0 0 O_____P__OP___ jtwc_sh SH231958 -22.2000 115.200 -1 -21.7419 114.775 950 -22.2000 115.200 TC -22.1591 115.213 4 8 122
1958073S19115 1958 23 SI WA NOT_NAMED 1958-03-15 13:00:00 TS -22.0102 115.193 950 bom main 0 0 P_____O__PP___ SH231958 -22.2451 115.309 -1 -21.8000 114.900 950 4 -22.2451 115.309 TC -22.2123 115.327 4 8 119
1958073S19115 1958 23 SI WA NOT_NAMED 1958-03-15 15:00:00 TS -22.1319 115.438 main 0 0 P_____P__PP___ SH231958 -22.3073 115.528 -1 -21.9479 115.182 956 -22.3073 115.528 TC -22.3059 115.563 4 8 117
1958073S19115 1958 23 SI WA NOT_NAMED 1958-03-15 18:00:00 TS -22.3245 115.856 main 0 0 O_____P__OP___ jtwc_sh SH231958 -22.4000 115.900 -1 -22.2245 115.690 966 -22.4000 115.900 TC -22.4340 115.944 4 9 117
1958073S19115 1958 23 SI WA NOT_NAMED 1958-03-15 21:00:00 TS -22.5600 116.344 main 0 0 P_____P__PP___ SH231958 -22.5699 116.363 -1 -22.5451 116.270 976 -22.5699 116.363 TC -22.5780 116.375 4 11 118
1958073S19115 1958 23 SI WA NOT_NAMED 1958-03-15 23:00:00 TS -22.7371 116.704 main 0 0 P_____P__PO___ SH231958 -22.7166 116.714 -1 -22.7715 116.681 983 -22.7166 116.714 TC -22.7000 116.700 2 12 118
1958073S19115 1958 23 SI WA NOT_NAMED 1958-03-16 00:00:00 TS -22.8337 116.894 main 0 0 O_____P__OP___ jtwc_sh SH231958 -22.8000 116.900 -1 -22.8859 116.890 986 -22.8000 116.900 TC -22.7825 116.879 2 12 119
1958073S19115 1958 23 SI WA NOT_NAMED 1958-03-16 01:00:00 TS -22.9331 117.086 990 bom main 0 0 P_____O__PP___ SH231958 -22.8885 117.086 -1 -23.0000 117.100 990 -22.8885 117.086 TC -22.8713 117.067 2 13 119
1958073S19115 1958 23 SI WA NOT_NAMED 1958-03-16 03:00:00 TS -23.1407 117.486 main 0 0 P_____P__PP___ SH231958 -23.0849 117.478 -1 -23.2250 117.519 991 -23.0849 117.478 TC -23.0640 117.467 2 13 119
1958073S19115 1958 23 SI WA NOT_NAMED 1958-03-16 06:00:00 TS -23.4611 118.111 main 0 0 O_____P__OP___ jtwc_sh SH231958 -23.4000 118.100 -1 -23.5548 118.144 993 -23.4000 118.100 TC -23.3768 118.106 2 13 118
1958073S19115 1958 23 SI WA NOT_NAMED 1958-03-16 09:00:00 TS -23.7697 118.757 main 0 0 P_____P__PP___ SH231958 -23.7074 118.750 -1 -23.8775 118.767 995 -23.7074 118.750 TC -23.6959 118.765 2 13 117
1958073S19115 1958 23 SI WA NOT_NAMED 1958-03-16 11:00:00 TS -23.9593 119.189 main 0 0 P_____P__PO___ SH231958 -23.9057 119.186 -1 -24.0896 119.183 996 -23.9057 119.186 TC -23.9000 119.200 1 13 114
1958073S19115 1958 23 SI WA NOT_NAMED 1958-03-16 12:00:00 TS -24.0356 119.400 main 0 0 O_____P__OP___ jtwc_sh SH231958 -24.0000 119.400 -1 -24.1950 119.392 997 -24.0000 119.400 TC -23.9860 119.404 1 12 110
1958073S19115 1958 23 SI WA NOT_NAMED 1958-03-16 13:00:00 TS -24.0992 119.606 998 bom main 0 0 P_____O__PP___ SH231958 -24.0889 119.606 -1 -24.3000 119.600 998 -24.0889 119.606 TC -24.0696 119.607 1 12 111
1958073S19115 1958 23 SI WA NOT_NAMED 1958-03-16 15:00:00 TS -24.2487 120.009 main 0 0 P________PP___ SH231958 -24.2572 120.008 -1 -24.2572 120.008 TC -24.2318 120.010 1 12 113
1958073S19115 1958 23 SI WA NOT_NAMED 1958-03-16 18:00:00 TS -24.4905 120.603 main 0 0 O________OP___ jtwc_sh SH231958 -24.5000 120.600 -1 -24.5000 120.600 TC -24.4716 120.609 1 12 114
1958073S19115 1958 23 SI WA NOT_NAMED 1958-03-16 21:00:00 TS -24.7301 121.202 main 0 0 P________PP___ SH231958 -24.7348 121.200 -1 -24.7348 121.200 TC -24.7208 121.204 1 12 115
1958073S19115 1958 23 SI WA NOT_NAMED 1958-03-16 23:00:00 TS -24.9034 121.600 main 0 0 P________PO___ SH231958 -24.9051 121.600 -1 -24.9051 121.600 TC -24.9000 121.600 1 12 116
1958073S19115 1958 23 SI WA NOT_NAMED 1958-03-17 00:00:00 TS -24.9997 121.800 main 0 0 O________OP___ jtwc_sh SH231958 -25.0000 121.800 -1 -25.0000 121.800 TC -24.9992 121.799 1 13 121
1958073S19115 1958 23 SI WA NOT_NAMED 1958-03-17 03:00:00 TS -25.3329 122.398 main 0 0 P________PP___ SH231958 -25.3423 122.400 -1 -25.3423 122.400 TC -25.3141 122.395 1 13 122
1958073S19115 1958 23 SI WA NOT_NAMED 1958-03-17 06:00:00 TS -25.6818 122.998 main 0 0 O________OP___ jtwc_sh SH231958 -25.7000 123.000 -1 -25.7000 123.000 TC -25.6453 122.993 1 13 122
1958073S19115 1958 23 SI WA NOT_NAMED 1958-03-17 09:00:00 TS -25.9983 123.599 main 0 0 P________PP___ SH231958 -26.0072 123.600 -1 -26.0072 123.600 TC -25.9805 123.595 1 13 120
1958073S19115 1958 23 SI WA NOT_NAMED 1958-03-17 11:00:00 TS -26.2017 124.000 main 0 0 P________PO___ SH231958 -26.2025 124.000 -1 -26.2025 124.000 TC -26.2000 124.000 1 12 119
1958073S19115 1958 23 SI WA NOT_NAMED 1958-03-17 12:00:00 TS -26.3029 124.202 main 0 0 O________OP___ jtwc_sh SH231958 -26.3000 124.200 -1 -26.3000 124.200 TC -26.3072 124.204 1 12 119
1958073S19115 1958 23 SI WA NOT_NAMED 1958-03-17 15:00:00 TS -26.6085 124.811 main 0 0 P________PP___ SH231958 -26.5980 124.799 -1 -26.5980 124.799 TC -26.6190 124.822 1 13 119
1958073S19115 1958 23 SI WA NOT_NAMED 1958-03-17 18:00:00 TS -26.9111 125.428 main 0 0 O________OP___ jtwc_sh SH231958 -26.9000 125.400 -1 -26.9000 125.400 TC -26.9185 125.447 1 13 118
1958073S19115 1958 23 SI WA NOT_NAMED 1958-03-17 21:00:00 NR -27.2093 126.077 main 0 0 __________P___ SH231958 -1 TC -27.2093 126.077 1 13 117
1958073S19115 1958 23 SI WA NOT_NAMED 1958-03-17 23:00:00 NR -27.4000 126.500 main 0 __________O___ SH231958 -1 TC -27.4000 126.500 1 13 117

About IBTrACS Database

This database is a web-friendly format of International Best Track Archive for Climate Stewardship (IBTrACS), a global best track data archive curated by NOAA dating back to 1842.

Updated: 2021-12-01